Terminal Aerodrome Forecast
Issued by NWS

Home | Current Version | Previous Version | Text Only | Print | Product List | Glossary On
Versions: 1 2 3 4 5 6 7 8 9 10 11 12 13 14 15 16 17 18 19
000
FTUS46 KSEW 011500 AAA
TAFSEA
TAF AMD
KSEA 011500Z 0115/0218 04006KT P6SM FEW150 BKN250
     FM011700 VRB04KT P6SM VCTS BKN080CB OVC150
     FM012100 33008KT P6SM SCT080 BKN150
     FM020400 02008KT P6SM SCT150=

USA.gov is the U.S. government's official web portal to all federal, state and local government web resources and services.